Time;durP1;ratioP1;P1;durP2;ratioP2;P2;SDS_P1;SDS_P2;PMS_P1;PMS_P2;Temp;Humidity;BMP_temperature;BMP_pressure;BME280_temperature;BME280_humidity;BME280_pressure;Samples;Min_cycle;Max_cycle;Signal;HPM_P1;HPM_P2
2021/08/05 00:00:10;;;;;;;5.10;2.30;;;15.90;99.90;;;16.65;100.00;97742.03;5050853;28;20472;-84
2021/08/05 00:02:38;;;;;;;7.27;3.07;;;15.60;99.90;;;16.66;100.00;97741.00;5050038;28;20522;-85
2021/08/05 00:05:08;;;;;;;6.30;2.47;;;15.70;99.90;;;16.67;100.00;97737.31;5042420;28;20469;-85
2021/08/05 00:07:36;;;;;;;4.20;2.80;;;15.70;99.90;;;16.72;100.00;97727.66;5046393;28;20509;-86
2021/08/05 00:10:06;;;;;;;8.43;3.07;;;15.80;99.90;;;16.75;100.00;97731.66;5047136;28;20492;-85
2021/08/05 00:12:35;;;;;;;6.70;2.63;;;15.80;99.90;;;16.76;100.00;97735.94;5049544;28;20538;-85
2021/08/05 00:15:04;;;;;;;4.93;3.20;;;15.70;99.90;;;16.81;100.00;97734.19;5047366;28;20501;-85
2021/08/05 00:17:34;;;;;;;5.17;3.20;;;15.80;99.90;;;16.85;100.00;97739.78;5052458;28;20614;-85
2021/08/05 00:20:03;;;;;;;4.33;2.60;;;15.80;99.90;;;16.86;100.00;97731.66;5048787;28;20470;-85
2021/08/05 00:22:32;;;;;;;4.10;2.40;;;15.90;99.90;;;16.74;100.00;97733.50;5043932;28;20472;-85
2021/08/05 00:25:01;;;;;;;3.33;2.23;;;15.80;99.90;;;16.59;100.00;97722.66;5042273;28;20523;-85
2021/08/05 00:27:29;;;;;;;6.30;3.00;;;15.50;99.90;;;16.64;100.00;97719.28;5049830;28;20473;-85
2021/08/05 00:29:58;;;;;;;7.13;2.43;;;15.60;99.90;;;16.65;100.00;97731.47;5046892;28;20478;-85
2021/08/05 00:32:26;;;;;;;4.77;2.73;;;15.70;99.90;;;16.70;100.00;97727.09;5043111;28;20465;-85
2021/08/05 00:34:56;;;;;;;4.60;2.93;;;15.70;99.90;;;16.75;100.00;97729.84;5044826;28;20457;-85
2021/08/05 00:37:25;;;;;;;3.10;2.30;;;15.80;99.90;;;16.79;100.00;97723.06;5044243;28;20472;-85
2021/08/05 00:39:54;;;;;;;4.80;2.80;;;15.90;99.90;;;16.81;100.00;97720.16;5042946;28;20958;-85
2021/08/05 00:42:22;;;;;;;8.20;2.73;;;15.90;99.90;;;16.78;100.00;97724.09;5048796;28;20523;-85
2021/08/05 00:44:50;;;;;;;5.10;3.20;;;15.90;99.90;;;16.76;100.00;97728.00;5045937;28;21015;-85
2021/08/05 00:47:19;;;;;;;11.47;3.10;;;15.90;99.90;;;16.73;100.00;97720.56;5044656;28;20515;-85
2021/08/05 00:49:48;;;;;;;5.97;2.77;;;15.90;99.90;;;16.70;100.00;97718.34;5038505;28;20539;-85
2021/08/05 00:52:18;;;;;;;3.37;2.80;;;15.80;99.90;;;16.70;100.00;97707.78;5047430;28;21058;-85
2021/08/05 00:54:46;;;;;;;6.30;2.80;;;15.70;99.90;;;16.70;100.00;97716.53;5044323;28;20804;-84
2021/08/05 00:57:15;;;;;;;6.47;2.70;;;15.80;99.90;;;16.67;100.00;97716.19;5046156;28;20465;-85
2021/08/05 00:59:44;;;;;;;3.60;2.57;;;15.70;99.90;;;16.63;100.00;97709.75;5043063;28;20474;-85
2021/08/05 01:02:19;;;;;;;2.90;2.60;;;15.60;99.90;;;16.61;100.00;97702.09;5044705;28;20471;-85
2021/08/05 01:04:54;;;;;;;5.70;2.93;;;15.60;99.90;;;16.60;100.00;97711.03;5040615;28;20461;-85
2021/08/05 01:07:30;;;;;;;5.60;3.37;;;15.60;99.90;;;16.60;100.00;97706.56;5047311;28;20500;-85
2021/08/05 01:10:08;;;;;;;3.43;2.47;;;15.70;99.90;;;16.64;100.00;97700.81;5045525;28;20491;-85
2021/08/05 01:12:46;;;;;;;3.60;2.80;;;15.70;99.90;;;16.63;100.00;97699.19;5043324;28;20946;-85
2021/08/05 01:15:22;;;;;;;9.30;2.43;;;15.80;99.90;;;16.57;100.00;97701.75;5047288;28;20578;-85
2021/08/05 01:17:57;;;;;;;7.30;3.10;;;15.60;99.90;;;16.60;100.00;97700.47;5046390;28;20469;-85
2021/08/05 01:20:28;;;;;;;5.43;2.93;;;15.70;99.90;;;16.57;100.00;97707.03;5042599;28;20961;-85
2021/08/05 01:23:13;;;;;;;5.53;3.23;;;15.70;99.90;;;16.57;100.00;97701.75;5046016;28;20464;-85
2021/08/05 01:25:52;;;;;;;3.57;2.70;;;15.70;99.90;;;16.58;100.00;97698.09;5046404;28;20465;-86
2021/08/05 01:28:22;;;;;;;4.93;2.70;;;15.60;99.90;;;16.59;100.00;97694.38;5047790;28;20804;-85
2021/08/05 01:30:55;;;;;;;4.87;2.87;;;15.60;99.90;;;16.62;100.00;97692.34;5044535;28;20915;-85
2021/08/05 01:33:24;;;;;;;7.17;2.70;;;15.60;99.90;;;16.57;100.00;97685.91;5046485;28;20461;-85
2021/08/05 01:35:56;;;;;;;4.20;2.50;;;15.60;99.90;;;16.55;100.00;97687.16;5046603;28;20469;-85
2021/08/05 01:38:25;;;;;;;4.83;2.57;;;15.50;99.90;;;16.52;100.00;97682.34;5045752;28;20528;-85
2021/08/05 01:40:55;;;;;;;11.60;2.60;;;15.60;99.90;;;16.45;100.00;97686.97;5045769;28;20962;-85
2021/08/05 01:43:26;;;;;;;5.63;2.60;;;15.40;99.90;;;16.41;100.00;97683.97;5045873;28;20515;-85
2021/08/05 01:45:56;;;;;;;8.20;2.70;;;15.40;99.90;;;16.36;100.00;97689.13;5047614;28;20889;-85
2021/08/05 01:48:26;;;;;;;5.50;2.97;;;15.30;99.90;;;16.37;100.00;97682.84;5046498;28;20989;-85
2021/08/05 01:50:55;;;;;;;8.00;3.30;;;15.30;99.90;;;16.43;100.00;97689.81;5044910;28;20485;-85
2021/08/05 01:53:24;;;;;;;3.90;2.70;;;15.40;99.90;;;16.38;100.00;97681.78;5044846;28;20468;-85
2021/08/05 01:55:53;;;;;;;5.50;3.07;;;15.40;99.90;;;16.37;100.00;97680.19;5046881;28;20488;-85
2021/08/05 01:58:21;;;;;;;9.13;3.57;;;15.30;99.90;;;16.39;100.00;97679.94;5037957;28;20871;-85
2021/08/05 02:00:51;;;;;;;2.90;2.60;;;15.30;99.90;;;16.33;100.00;97665.84;5040001;28;20887;-85
2021/08/05 02:03:20;;;;;;;7.97;2.47;;;15.30;99.90;;;16.28;100.00;97676.28;5047767;28;20817;-85
2021/08/05 02:06:05;;;;;;;5.23;3.00;;;15.20;99.90;;;16.33;100.00;97673.78;5045816;28;20465;-85
2021/08/05 02:08:45;;;;;;;5.90;2.93;;;15.30;99.90;;;16.34;100.00;97666.66;5049062;28;20449;-85
2021/08/05 02:11:15;;;;;;;12.00;2.90;;;15.30;99.90;;;16.32;100.00;97672.16;5043240;28;20489;-85
2021/08/05 02:13:45;;;;;;;2.93;2.60;;;15.30;99.90;;;16.34;100.00;97667.47;5046060;28;20516;-85
2021/08/05 02:16:19;;;;;;;10.40;2.97;;;15.30;99.90;;;16.36;100.00;97664.56;5044559;28;20492;-85
2021/08/05 02:18:49;;;;;;;3.33;2.97;;;15.30;99.90;;;16.33;100.00;97660.56;5039587;28;20559;-85
2021/08/05 02:21:22;;;;;;;6.77;3.10;;;15.30;99.90;;;16.29;100.00;97670.00;5047123;28;20449;-85
2021/08/05 02:23:53;;;;;;;6.90;2.90;;;15.30;99.90;;;16.28;100.00;97657.03;5053198;28;20468;-85
2021/08/05 02:26:23;;;;;;;4.37;2.80;;;15.30;99.90;;;16.28;100.00;97660.47;5043878;28;20514;-85
2021/08/05 02:28:52;;;;;;;3.43;3.03;;;15.20;99.90;;;16.31;100.00;97651.31;5043319;28;20481;-85
2021/08/05 02:31:23;;;;;;;2.50;2.30;;;15.30;99.90;;;16.33;100.00;97659.78;5043645;28;20538;-85
2021/08/05 02:33:53;;;;;;;3.73;2.80;;;15.40;99.90;;;16.31;100.00;97662.66;5036608;28;20817;-84
2021/08/05 02:36:21;;;;;;;7.73;2.97;;;15.30;99.90;;;16.33;100.00;97657.13;5040495;28;20456;-85
2021/08/05 02:38:50;;;;;;;4.20;2.97;;;15.40;99.90;;;16.33;100.00;97660.56;5055116;28;21031;-85
2021/08/05 02:41:19;;;;;;;5.77;3.23;;;15.30;99.90;;;16.36;100.00;97657.47;5044537;28;20512;-85
2021/08/05 02:43:48;;;;;;;4.07;2.73;;;15.40;99.90;;;16.31;100.00;97657.38;5043365;28;20589;-85
2021/08/05 02:46:18;;;;;;;3.50;2.93;;;15.30;99.90;;;16.23;100.00;97652.47;5047903;28;20511;-85
2021/08/05 02:48:51;;;;;;;7.83;2.97;;;15.20;99.90;;;16.19;100.00;97655.78;5046492;28;20542;-85
2021/08/05 02:51:20;;;;;;;11.70;3.07;;;15.20;99.90;;;16.13;100.00;97654.06;5055365;28;20453;-84
2021/08/05 02:53:52;;;;;;;4.20;2.87;;;15.10;99.90;;;16.18;100.00;97651.53;5047148;28;20498;-86
2021/08/05 02:56:22;;;;;;;12.90;3.27;;;15.20;99.90;;;16.24;100.00;97656.72;5049177;28;20989;-85
2021/08/05 02:58:51;;;;;;;3.77;2.77;;;15.30;99.90;;;16.28;100.00;97644.63;5048723;28;20453;-86
2021/08/05 03:01:22;;;;;;;4.70;3.10;;;15.30;99.90;;;16.31;100.00;97646.81;5037999;28;20461;-86
2021/08/05 03:03:53;;;;;;;3.20;2.60;;;15.40;99.90;;;16.36;100.00;97651.38;5047948;28;20441;-86
2021/08/05 03:06:28;;;;;;;4.40;2.90;;;15.40;99.90;;;16.38;100.00;97655.38;5048626;28;20468;-85
2021/08/05 03:08:57;;;;;;;6.10;2.70;;;15.40;99.90;;;16.38;100.00;97647.47;5055934;28;20843;-86
2021/08/05 03:11:25;;;;;;;3.10;2.80;;;15.40;99.90;;;16.41;100.00;97649.66;5043694;28;20510;-86
2021/08/05 03:13:54;;;;;;;5.60;2.37;;;15.50;99.90;;;16.44;100.00;97641.28;5044130;28;20454;-86
2021/08/05 03:16:22;;;;;;;2.90;2.40;;;15.50;99.90;;;16.47;100.00;97640.00;5050663;28;21051;-86
2021/08/05 03:18:52;;;;;;;4.00;2.90;;;15.50;99.90;;;16.47;100.00;97638.16;5052676;28;20467;-86
2021/08/05 03:21:22;;;;;;;5.87;2.67;;;15.50;99.90;;;16.46;100.00;97631.28;5048079;28;20445;-86
2021/08/05 03:23:51;;;;;;;3.17;2.87;;;15.50;99.90;;;16.47;100.00;97632.88;5045422;28;20454;-85
2021/08/05 03:26:19;;;;;;;6.57;2.80;;;15.50;99.90;;;16.42;100.00;97635.41;5048531;28;20453;-86
2021/08/05 03:28:48;;;;;;;3.47;3.00;;;15.50;99.90;;;16.42;100.00;97629.31;5047674;28;20449;-86
2021/08/05 03:31:16;;;;;;;9.53;2.63;;;15.50;99.90;;;16.42;100.00;97629.31;5048843;28;20487;-85
2021/08/05 03:33:45;;;;;;;3.40;2.63;;;15.50;99.90;;;16.42;100.00;97635.41;5041798;28;20875;-85
2021/08/05 03:36:15;;;;;;;2.90;2.37;;;15.40;99.90;;;16.43;100.00;97625.66;5040440;28;20804;-85
2021/08/05 03:38:44;;;;;;;5.40;2.93;;;15.50;99.90;;;16.40;100.00;97632.22;5044992;28;20876;-86
2021/08/05 03:41:12;;;;;;;11.20;2.30;;;15.40;99.90;;;16.40;100.00;97628.78;5052340;28;20460;-86
2021/08/05 03:43:41;;;;;;;6.47;2.80;;;15.40;99.90;;;16.41;100.00;97631.19;5048383;28;21023;-85
2021/08/05 03:46:09;;;;;;;12.13;3.53;;;15.40;99.90;;;16.39;100.00;97633.25;5048790;28;20445;-86
2021/08/05 03:48:38;;;;;;;3.47;3.00;;;15.40;99.90;;;16.39;100.00;97633.25;5048316;28;20506;-85
2021/08/05 03:51:07;;;;;;;6.17;3.20;;;15.40;99.90;;;16.37;100.00;97637.97;5048430;28;20461;-85
2021/08/05 03:53:37;;;;;;;4.90;2.77;;;15.50;99.90;;;16.37;100.00;97632.69;5048227;28;20534;-86
2021/08/05 03:56:06;;;;;;;6.73;3.00;;;15.40;99.90;;;16.31;100.00;97628.34;5044991;28;20473;-86
2021/08/05 03:58:34;;;;;;;3.53;2.93;;;15.40;99.90;;;16.32;100.00;97626.50;5048185;28;20499;-86
2021/08/05 04:01:03;;;;;;;2.80;2.47;;;15.40;99.90;;;16.27;100.00;97621.94;5047516;28;20508;-86
2021/08/05 04:03:32;;;;;;;4.37;3.20;;;15.40;99.90;;;16.25;100.00;97613.44;5052415;28;20448;-85
2021/08/05 04:06:04;;;;;;;3.93;3.00;;;15.40;99.90;;;16.23;100.00;97610.25;5048560;28;20491;-86
2021/08/05 04:08:33;;;;;;;6.17;3.47;;;15.30;99.90;;;16.21;100.00;97612.28;5046954;28;20441;-86
2021/08/05 04:11:03;;;;;;;5.90;3.60;;;15.30;99.90;;;16.23;100.00;97604.97;5048097;28;20445;-86
2021/08/05 04:13:33;;;;;;;4.47;2.73;;;15.30;99.90;;;16.25;100.00;97604.72;5038855;28;20563;-86
2021/08/05 04:16:02;;;;;;;7.97;3.10;;;15.30;99.90;;;16.24;100.00;97606.56;5047516;28;20902;-86
2021/08/05 04:18:30;;;;;;;3.50;2.70;;;15.30;99.90;;;16.23;100.00;97612.06;5047675;28;20823;-85
2021/08/05 04:20:59;;;;;;;6.30;3.20;;;15.30;99.90;;;16.21;100.00;97611.50;5049447;28;20499;-85
2021/08/05 04:23:27;;;;;;;5.93;3.50;;;15.30;99.90;;;16.21;100.00;97609.66;5043776;28;20445;-86
2021/08/05 04:25:57;;;;;;;7.00;3.37;;;15.30;99.90;;;16.23;100.00;97615.50;5047704;28;20445;-86
2021/08/05 04:28:27;;;;;;;5.20;2.67;;;15.30;99.90;;;16.23;100.00;97618.16;5044069;28;20453;-85
2021/08/05 04:30:55;;;;;;;4.80;3.17;;;15.30;99.90;;;16.23;100.00;97620.78;5042298;28;20445;-86
2021/08/05 04:33:24;;;;;;;4.47;2.87;;;15.30;99.90;;;16.22;100.00;97613.09;5041983;28;20501;-86
2021/08/05 04:35:53;;;;;;;5.43;2.77;;;15.20;99.90;;;16.25;100.00;97615.25;5047500;28;20460;-86
2021/08/05 04:38:21;;;;;;;3.33;3.03;;;15.30;99.90;;;16.25;100.00;97618.72;5047612;28;20453;-86
2021/08/05 04:40:50;;;;;;;4.43;2.97;;;15.30;99.90;;;16.26;100.00;97620.31;5048610;28;20882;-85
2021/08/05 04:43:18;;;;;;;5.70;2.90;;;15.30;99.90;;;16.24;100.00;97619.78;5051607;28;20499;-86
2021/08/05 04:45:48;;;;;;;4.97;2.40;;;15.40;99.90;;;16.23;100.00;97617.34;5053735;28;20444;-86
2021/08/05 04:48:17;;;;;;;5.93;2.90;;;15.30;99.90;;;16.22;100.00;97624.47;5047749;28;20960;-85
2021/08/05 04:50:46;;;;;;;3.03;2.73;;;15.30;99.90;;;16.21;100.00;97620.22;5049944;28;20550;-86
2021/08/05 04:53:17;;;;;;;3.70;2.90;;;15.30;99.90;;;16.22;100.00;97621.00;5051493;28;20500;-85
2021/08/05 04:55:46;;;;;;;3.20;2.70;;;15.30;99.90;;;16.24;100.00;97611.03;5051379;28;20527;-86
2021/08/05 04:58:15;;;;;;;4.63;2.63;;;15.30;99.90;;;16.25;100.00;97618.72;5052049;28;20498;-86
2021/08/05 05:00:44;;;;;;;5.87;2.77;;;15.30;99.90;;;16.25;100.00;97615.25;5052276;28;20522;-86
2021/08/05 05:03:15;;;;;;;8.90;2.80;;;15.30;99.90;;;16.25;100.00;97618.72;5054821;28;20472;-85
2021/08/05 05:05:43;;;;;;;4.20;2.90;;;15.30;99.90;;;16.27;100.00;97614.03;5045096;28;20487;-86
2021/08/05 05:08:14;;;;;;;4.33;3.07;;;15.30;99.90;;;16.29;100.00;97609.28;5042929;28;20454;-85
2021/08/05 05:10:42;;;;;;;4.27;3.40;;;15.30;99.90;;;16.28;100.00;97606.91;5045603;28;20445;-86
2021/08/05 05:13:11;;;;;;;12.53;3.63;;;15.30;99.90;;;16.30;100.00;97604.81;5050790;28;20565;-86
2021/08/05 05:15:40;;;;;;;5.63;3.00;;;15.40;99.90;;;16.29;100.00;97604.03;5043679;28;20994;-86
2021/08/05 05:18:10;;;;;;;11.40;3.10;;;15.40;99.90;;;16.31;100.00;97596.69;5050987;28;20453;-86
2021/08/05 05:20:40;;;;;;;5.50;3.77;;;15.40;99.90;;;16.35;100.00;97608.34;5048185;28;20522;-85
2021/08/05 05:23:09;;;;;;;3.87;2.70;;;15.40;99.90;;;16.37;100.00;97610.78;5049947;28;20457;-86
2021/08/05 05:25:40;;;;;;;4.93;2.77;;;15.40;99.90;;;16.38;100.00;97610.53;5046662;28;20441;-85
2021/08/05 05:28:09;;;;;;;18.37;3.30;;;15.50;99.90;;;16.39;100.00;97609.50;5046922;28;20850;-86
2021/08/05 05:30:40;;;;;;;7.07;2.80;;;15.50;99.90;;;16.42;100.00;97603.75;5051603;28;20504;-86
2021/08/05 05:33:08;;;;;;;3.87;2.73;;;15.60;99.90;;;16.42;100.00;97609.03;5049887;28;20829;-86
2021/08/05 05:35:41;;;;;;;4.40;3.20;;;15.60;99.90;;;16.46;100.00;97612.78;5050363;28;20453;-86
2021/08/05 05:38:10;;;;;;;7.47;3.83;;;15.60;99.90;;;16.48;100.00;97616.03;5048983;28;20456;-86
2021/08/05 05:40:40;;;;;;;6.60;3.30;;;15.50;99.90;;;16.47;100.00;97614.41;5050229;28;20504;-86
2021/08/05 05:43:10;;;;;;;3.97;3.23;;;15.60;99.90;;;16.50;100.00;97611.28;5049996;28;20461;-86
2021/08/05 05:45:38;;;;;;;5.33;3.30;;;15.60;99.90;;;16.52;100.00;97611.84;5053817;28;20496;-86
2021/08/05 05:48:09;;;;;;;3.80;3.50;;;15.70;99.90;;;16.58;100.00;97608.31;5046896;28;20441;-85
2021/08/05 05:50:40;;;;;;;9.87;2.90;;;15.70;99.90;;;16.62;100.00;97608.66;5049542;28;20532;-86
2021/08/05 05:53:10;;;;;;;3.37;3.07;;;15.80;99.90;;;16.69;100.00;97619.06;5050005;28;20497;-86
2021/08/05 05:55:40;;;;;;;6.00;3.20;;;15.80;99.90;;;16.72;100.00;97613.31;5042597;28;20535;-86
2021/08/05 05:58:09;;;;;;;4.00;3.10;;;15.80;99.90;;;16.77;100.00;97618.66;5048085;28;20556;-86
2021/08/05 06:00:37;;;;;;;5.37;3.83;;;15.80;99.90;;;16.81;100.00;97604.75;5050632;28;20449;-86
2021/08/05 06:03:06;;;;;;;5.60;3.50;;;15.90;99.90;;;16.85;100.00;97602.44;5049794;28;20464;-86
2021/08/05 06:05:35;;;;;;;35.57;15.07;;;15.90;99.90;;;16.89;100.00;97599.09;5047439;28;20461;-82
2021/08/05 06:08:06;;;;;;;33.83;16.20;;;16.00;99.90;;;16.93;100.00;97596.78;5043278;28;20446;-86
2021/08/05 06:10:35;;;;;;;6.10;4.60;;;16.10;99.90;;;17.00;100.00;97600.09;5050492;28;20911;-86
2021/08/05 06:13:04;;;;;;;5.90;3.40;;;16.10;99.90;;;17.06;100.00;97614.97;5038794;28;20548;-85
2021/08/05 06:15:32;;;;;;;8.50;3.47;;;16.20;99.90;;;17.10;100.00;97608.19;5043267;28;20485;-85
2021/08/05 06:18:01;;;;;;;40.20;24.33;;;16.20;99.90;;;17.13;100.00;97605.06;5044254;28;20902;-86
2021/08/05 06:20:30;;;;;;;5.20;4.13;;;16.30;99.90;;;17.18;100.00;97609.63;5043366;28;20468;-85
2021/08/05 06:22:58;;;;;;;6.23;4.10;;;16.40;99.90;;;17.22;100.00;97603.59;5043000;28;20458;-89
2021/08/05 06:25:29;;;;;;;5.53;3.13;;;16.40;99.90;;;17.26;100.00;97603.94;5049771;28;20495;-87
2021/08/05 06:27:57;;;;;;;5.03;3.90;;;16.40;99.90;;;17.29;100.00;97604.25;5047511;28;20944;-88
2021/08/05 06:30:26;;;;;;;6.03;4.43;;;16.50;99.90;;;17.35;100.00;97607.78;5042999;28;20445;-88
2021/08/05 06:32:55;;;;;;;9.57;3.77;;;16.50;99.90;;;17.37;100.00;97605.69;5053696;28;20974;-88
2021/08/05 06:35:24;;;;;;;7.60;4.63;;;16.60;99.90;;;17.40;100.00;97605.22;5049470;28;20496;-87
2021/08/05 06:37:53;;;;;;;8.03;4.20;;;16.60;99.90;;;17.41;100.00;97602.34;5045235;28;20540;-87
2021/08/05 06:40:22;;;;;;;8.07;4.47;;;16.60;99.90;;;17.43;100.00;97594.16;5042870;28;20469;-87
2021/08/05 06:42:52;;;;;;;10.63;7.90;;;16.60;99.90;;;17.47;100.00;97596.06;5045044;28;20527;-87
2021/08/05 06:45:21;;;;;;;5.17;4.20;;;16.60;99.90;;;17.51;100.00;97597.19;5038508;28;20841;-87
2021/08/05 06:47:50;;;;;;;10.30;4.67;;;16.70;99.90;;;17.52;100.00;97601.44;5057148;28;20837;-87
2021/08/05 06:50:19;;;;;;;7.80;4.90;;;16.60;99.90;;;17.57;100.00;97595.44;5056992;28;20553;-88
2021/08/05 06:52:48;;;;;;;6.97;4.10;;;16.70;99.90;;;17.62;100.00;97603.47;5046828;28;20461;-86
2021/08/05 06:55:16;;;;;;;9.93;4.27;;;16.80;99.90;;;17.66;100.00;97609.88;5039277;28;20492;-87
2021/08/05 06:57:45;;;;;;;6.43;4.13;;;16.90;99.90;;;17.65;100.00;97610.09;5046611;28;20453;-88
2021/08/05 07:00:17;;;;;;;7.27;4.33;;;16.80;99.90;;;17.65;100.00;97604.81;5038176;28;20536;-87
2021/08/05 07:02:45;;;;;;;8.20;5.17;;;16.80;99.90;;;17.73;100.00;97609.72;5044052;28;20448;-86
2021/08/05 07:05:14;;;;;;;5.67;4.70;;;16.80;99.90;;;17.78;100.00;97601.81;5048116;28;20484;-85
2021/08/05 07:07:43;;;;;;;9.73;3.93;;;16.90;99.90;;;17.81;100.00;97602.13;5048036;28;20469;-86
2021/08/05 07:10:12;;;;;;;6.17;4.00;;;16.90;99.90;;;17.86;100.00;97599.56;5047137;28;20786;-86
2021/08/05 07:12:41;;;;;;;10.33;5.27;;;17.00;99.90;;;17.86;100.00;97596.94;5044264;28;20453;-85
2021/08/05 07:15:11;;;;;;;10.30;4.73;;;17.00;99.90;;;17.86;100.00;97593.47;5046444;28;20927;-84
2021/08/05 07:17:44;;;;;;;8.23;4.13;;;17.00;99.90;;;17.94;100.00;97593.06;5037990;28;20445;-84
2021/08/05 07:20:15;;;;;;;8.83;4.90;;;17.10;99.90;;;18.02;100.00;97600.56;5046410;28;20450;-84
2021/08/05 07:22:44;;;;;;;6.83;4.40;;;17.20;99.90;;;18.05;100.00;97597.41;5048427;28;20446;-84
2021/08/05 07:25:17;;;;;;;7.50;4.10;;;17.20;99.90;;;18.11;100.00;97588.53;5048069;28;20963;-84
2021/08/05 07:27:48;;;;;;;9.90;4.30;;;17.30;99.90;;;18.15;100.00;97589.63;5047443;28;20942;-84
2021/08/05 07:30:19;;;;;;;7.73;4.90;;;17.40;99.90;;;18.15;100.00;97594.13;5041950;28;20450;-84
2021/08/05 07:32:49;;;;;;;8.30;4.43;;;17.30;99.90;;;18.16;100.00;97593.06;5047873;28;20433;-86
2021/08/05 07:35:18;;;;;;;11.10;5.60;;;17.30;99.90;;;18.18;100.00;97593.63;5041851;28;20610;-87
2021/08/05 07:37:47;;;;;;;20.47;12.10;;;17.30;99.90;;;18.22;100.00;97594.75;5043727;28;20538;-86
2021/08/05 07:40:17;;;;;;;14.67;6.77;;;17.40;99.90;;;18.23;100.00;97588.38;5051626;28;20928;-87
2021/08/05 07:42:46;;;;;;;8.50;5.67;;;17.40;99.90;;;18.23;100.00;97578.59;5043259;28;20473;-87
2021/08/05 07:45:14;;;;;;;7.87;4.90;;;17.40;99.90;;;18.29;100.00;97590.84;5044768;28;20466;-85
2021/08/05 07:47:46;;;;;;;14.23;5.63;;;17.50;99.90;;;18.30;100.00;97587.16;5041718;28;20501;-86
2021/08/05 07:50:17;;;;;;;11.07;6.23;;;17.50;99.90;;;18.32;100.00;97585.06;5046160;28;20964;-85
2021/08/05 07:52:45;;;;;;;9.37;5.87;;;17.40;99.90;;;18.37;100.00;97579.00;5048948;28;21020;-86
2021/08/05 07:55:14;;;;;;;11.53;5.80;;;17.50;99.90;;;18.42;100.00;97571.16;5043685;28;21106;-85
2021/08/05 07:57:43;;;;;;;10.40;4.93;;;17.60;99.90;;;18.50;100.00;97571.50;5036851;28;20814;-87
2021/08/05 08:00:13;;;;;;;6.93;4.87;;;17.70;99.90;;;18.57;100.00;97569.47;5041216;28;20468;-86
2021/08/05 08:02:42;;;;;;;8.90;5.40;;;17.80;99.90;;;18.63;100.00;97564.25;5042212;28;20464;-85
2021/08/05 08:05:14;;;;;;;9.10;4.50;;;17.90;99.90;;;18.69;100.00;97568.53;5041577;28;20493;-85
2021/08/05 08:07:45;;;;;;;8.93;5.30;;;17.90;99.90;;;18.74;100.00;97563.28;5044094;28;20879;-86
2021/08/05 08:10:15;;;;;;;10.03;4.67;;;17.90;99.90;;;18.77;100.00;97565.44;5045743;28;20513;-86
2021/08/05 08:12:44;;;;;;;9.43;5.40;;;18.00;99.90;;;18.84;100.00;97560.72;5045656;28;20464;-86
2021/08/05 08:15:14;;;;;;;24.80;16.67;;;18.00;99.90;;;18.88;100.00;97565.25;5045814;28;21024;-87
2021/08/05 08:17:42;;;;;;;23.97;11.77;;;18.00;99.90;;;18.95;100.00;97567.72;5043861;28;20465;-83
2021/08/05 08:20:13;;;;;;;12.20;5.90;;;18.10;99.90;;;19.01;100.00;97564.06;5051058;28;20438;-84
2021/08/05 08:22:42;;;;;;;7.80;4.67;;;18.10;99.90;;;18.98;100.00;97556.63;5052163;28;20953;-84
2021/08/05 08:25:14;;;;;;;6.53;4.40;;;18.10;99.90;;;19.02;100.00;97560.38;5050478;28;20441;-86
2021/08/05 08:27:43;;;;;;;7.80;4.30;;;18.30;99.90;;;19.09;100.00;97567.03;5048127;28;20517;-85
2021/08/05 08:30:14;;;;;;;8.40;4.47;;;18.30;99.90;;;19.12;100.00;97557.00;5042492;28;20547;-86
2021/08/05 08:32:47;;;;;;;5.40;4.10;;;18.30;99.90;;;19.16;100.00;97558.88;5046691;28;20472;-86
2021/08/05 08:35:16;;;;;;;7.90;4.20;;;18.40;99.90;;;19.25;100.00;97562.66;5044568;28;20492;-86
2021/08/05 08:37:44;;;;;;;7.93;4.80;;;18.50;99.90;;;19.22;100.00;97557.88;5050198;28;20522;-86
2021/08/05 08:40:18;;;;;;;5.43;3.77;;;18.40;99.90;;;19.23;100.00;97556.03;5050569;28;20473;-85
2021/08/05 08:42:46;;;;;;;7.07;4.10;;;18.50;99.90;;;19.28;100.00;97551.53;5046874;28;20899;-86
2021/08/05 08:45:16;;;;;;;8.13;4.17;;;18.50;99.90;;;19.29;100.00;97550.50;5045078;28;20477;-87
2021/08/05 08:47:49;;;;;;;10.07;4.10;;;18.50;99.90;;;19.33;100.00;97556.88;5047682;28;20538;-86
2021/08/05 08:50:19;;;;;;;199.37;135.13;;;18.50;99.90;;;19.30;100.00;97553.97;5044149;28;20461;-87
2021/08/05 08:52:48;;;;;;;5.27;4.30;;;18.50;99.90;;;19.33;100.00;97559.53;5044255;28;20578;-85
2021/08/05 08:55:22;;;;;;;6.70;3.90;;;18.50;99.90;;;19.39;100.00;97561.19;5043438;28;20489;-85
2021/08/05 08:57:57;;;;;;;7.17;4.30;;;18.60;99.90;;;19.49;100.00;97558.63;5039566;28;20980;-83
2021/08/05 09:00:25;;;;;;;12.70;4.10;;;18.80;99.90;;;19.56;100.00;97553.09;5050679;28;20793;-82
2021/08/05 09:02:55;;;;;;;7.60;4.10;;;18.80;99.90;;;19.66;100.00;97549.69;5046351;28;21079;-85
2021/08/05 09:05:26;;;;;;;6.17;4.03;;;19.00;99.90;;;19.70;100.00;97543.63;5039929;28;20450;-86
2021/08/05 09:07:55;;;;;;;99.17;58.07;;;19.00;99.90;;;19.72;100.00;97549.44;5049347;28;20473;-84
2021/08/05 09:10:25;;;;;;;7.73;4.70;;;19.00;99.90;;;19.71;100.00;97547.06;5053454;28;20449;-86
2021/08/05 09:12:55;;;;;;;5.60;3.80;;;18.90;99.90;;;19.70;100.00;97551.56;5050569;28;20469;-83
2021/08/05 09:15:39;;;;;;;3.80;3.37;;;18.90;99.90;;;19.77;100.00;97548.69;5050100;28;20508;-83
2021/08/05 09:18:29;;;;;;;6.43;3.30;;;19.10;99.90;;;19.76;100.00;97544.44;5045488;28;20441;-83
2021/08/05 09:21:21;;;;;;;3.70;2.80;;;19.00;99.90;;;19.69;100.00;97541.22;5052657;28;20793;-83
2021/08/05 09:23:54;;;;;;;3.73;3.03;;;18.90;99.90;;;19.71;100.00;97536.47;5050443;28;20477;-84
2021/08/05 09:26:33;;;;;;;6.80;3.53;;;18.90;99.90;;;19.76;100.00;97541.78;5046311;28;20879;-82
2021/08/05 09:29:09;;;;;;;6.90;3.70;;;18.90;99.90;;;19.79;100.00;97538.59;5052568;28;20809;-83
2021/08/05 09:31:45;;;;;;;11.20;3.60;;;19.10;99.90;;;19.84;100.00;97536.00;5052679;28;20461;-83
2021/08/05 09:34:17;;;;;;;4.60;3.43;;;19.20;99.90;;;19.94;100.00;97530.72;5047315;28;20889;-83
2021/08/05 09:36:49;;;;;;;4.33;3.30;;;19.20;99.90;;;20.01;100.00;97531.28;5043912;28;20502;-83
2021/08/05 09:39:21;;;;;;;5.57;3.30;;;19.30;99.90;;;20.01;100.00;97534.75;5054402;28;20521;-83
2021/08/05 09:41:59;;;;;;;2.73;1.93;;;19.20;99.90;;;20.04;100.00;97534.22;5052963;28;20456;-83
2021/08/05 09:44:43;;;;;;;5.50;2.20;;;19.30;99.90;;;20.05;100.00;97540.31;5044178;28;20453;-84
2021/08/05 09:47:17;;;;;;;3.50;1.90;;;19.30;99.90;;;19.98;100.00;97535.25;5050672;28;20469;-83
2021/08/05 09:49:57;;;;;;;5.10;2.43;;;19.20;99.90;;;20.08;100.00;97526.53;5048010;28;20486;-83
2021/08/05 09:52:28;;;;;;;4.43;1.83;;;19.30;99.90;;;20.18;100.00;97525.75;5052379;28;20453;-83
2021/08/05 09:54:58;;;;;;;3.10;2.30;;;19.40;99.90;;;20.17;100.00;97524.97;5050117;28;20484;-83
2021/08/05 09:57:31;;;;;;;5.03;2.93;;;19.50;99.90;;;20.13;100.00;97528.41;5052925;28;20445;-83
2021/08/05 10:00:02;;;;;;;4.30;2.50;;;19.40;99.90;;;20.17;100.00;97519.66;5046674;28;20518;-83
2021/08/05 10:02:42;;;;;;;2.50;2.03;;;19.60;99.90;;;20.25;100.00;97527.13;5051124;28;20507;-83
2021/08/05 10:05:13;;;;;;;2.77;2.33;;;19.70;99.90;;;20.37;100.00;97525.06;5047849;28;20536;-83
2021/08/05 10:07:44;;;;;;;2.70;2.27;;;19.80;99.90;;;20.48;100.00;97515.22;5047433;28;20469;-83
2021/08/05 10:10:15;;;;;;;3.40;2.50;;;19.90;99.90;;;20.59;100.00;97517.66;5054288;28;20443;-83
2021/08/05 10:12:53;;;;;;;6.73;3.63;;;20.00;99.90;;;20.70;100.00;97515.81;5052388;28;20459;-83
2021/08/05 10:15:22;;;;;;;3.60;2.23;;;20.10;99.90;;;20.75;100.00;97525.66;5046936;28;20848;-82
2021/08/05 10:17:53;;;;;;;8.53;2.20;;;20.10;99.90;;;20.75;100.00;97509.69;5050121;28;20852;-84
2021/08/05 10:20:24;;;;;;;7.50;2.27;;;20.20;99.90;;;20.84;100.00;97508.91;5047625;28;20478;-83
2021/08/05 10:22:57;;;;;;;4.03;1.90;;;20.30;99.90;;;20.92;100.00;97508.38;5052618;28;20453;-83